Welcome!

Visit our other weather sites:

Template documentation
and downloads

And another site



There are no active watches, warnings or advisories

Nearby METAR Reports

   
KAVP - Albrightsville, PA
Updated: Sep 22 2020 1:54 am
Clear  
Clear  
   Wind: ESE 5.8 mph
Wind: ESE 5.8 mph
Temperature: 42.8°F
Wind Chill: 39.2°F
Dew Point: 35.6°F
Humidity: 76%
Barometer: 30.33 inHg
Clouds: Clear
Visibility: 10 mi
Cloud details: Clear
KAVP 220654Z 12005KT 10SM CLR 06/02 A3033 RMK AO2 SLP271 T00560017
KIWA - Apache Junction, AZ
Updated: Sep 22 2020 1:50 am
Mostly Cloudy  
Mostly Cloudy  
   Wind: ESE 4.6 mph
Wind: ESE 4.6 mph
Temperature: 84.2°F
Dew Point: 48.2°F
Humidity: 29%
Barometer: 29.91 inHg
Clouds: Mostly Cloudy
Visibility: 10 mi
Cloud details: Mostly Cloudy 6096 m
KIWA 220650Z 12004KT 10SM BKN200 29/09 A2991
KPKB - Blue Rock, OH
Updated: Sep 22 2020 1:53 am
Few Clouds  
Few Clouds  
   Wind: Calm
Wind: Calm
Temperature: 42.8°F
Dew Point: 39.2°F
Humidity: 87%
Barometer: 30.32 inHg
Clouds: Few Clouds
Visibility: 10 mi
Cloud details: Few Clouds 31 m
KPKB 220653Z AUTO 00000KT 10SM FEW001 06/04 A3032 RMK AO2 SLP265 T00610044
KHVN - Branford, CT
Updated: Sep 22 2020 1:53 am
Clear  
Clear  
   Wind: North 4.6 mph
Wind: North 4.6 mph
Temperature: 44.6°F
Wind Chill: 42.8°F
Dew Point: 37.4°F
Humidity: 76%
Barometer: 30.29 inHg
Clouds: Clear
Visibility: 10 mi
Cloud details: Clear
KHVN 220653Z AUTO 35004KT 10SM CLR 07/03 A3029 RMK AO2 SLP256 T00720033
KPHX - Carefree, AZ
Updated: Sep 22 2020 1:51 am
Mostly Cloudy  
Mostly Cloudy  
   Wind: Calm
Wind: Calm
Temperature: 89.6°F
Dew Point: 51.8°F
Humidity: 27%
Barometer: 29.87 inHg
Clouds: Mostly Cloudy
Visibility: 10 mi
Cloud details: Partly Cloudy 3658 m,
Partly Cloudy 4267 m,
Mostly Cloudy 6096 m
KPHX 220651Z 00000KT 10SM SCT120 SCT140 BKN200 32/11 A2987 RMK AO2 SLP092 T03170106 403940272
 

Script developed by  Saratoga-weather.org Adapted for the template by  Weerstation Leuven